createdAt,value
2018-02-20T00:00:10.210Z,29.63
2018-02-20T00:02:36.447Z,30.10
2018-02-20T00:05:02.571Z,31.50
2018-02-20T00:07:28.668Z,28.98
2018-02-20T00:09:54.800Z,29.90
2018-02-20T00:12:23.987Z,29.26
2018-02-20T00:14:51.591Z,28.12
2018-02-20T00:17:20.036Z,30.77
2018-02-20T00:19:51.077Z,27.45
2018-02-20T00:22:20.596Z,30.12
2018-02-20T00:24:48.027Z,30.55
2018-02-20T00:27:15.723Z,29.40
2018-02-20T00:29:43.946Z,29.33
2018-02-20T00:32:10.961Z,28.08
2018-02-20T00:34:37.476Z,30.70
2018-02-20T00:37:04.970Z,28.10
2018-02-20T00:39:50.166Z,28.50
2018-02-20T00:44:59.402Z,29.77
2018-02-20T00:50:22.635Z,27.62
2018-02-20T00:52:49.163Z,28.90
2018-02-20T00:55:16.009Z,30.40
2018-02-20T00:57:42.133Z,30.00
2018-02-20T01:00:08.428Z,29.63
2018-02-20T01:02:34.545Z,30.83
2018-02-20T01:05:00.649Z,30.70
2018-02-20T01:07:26.741Z,28.58
2018-02-20T01:09:52.848Z,28.85
2018-02-20T01:12:19.037Z,29.30
2018-02-20T01:14:45.161Z,30.20
2018-02-20T01:17:12.020Z,31.77
2018-02-20T01:19:38.877Z,29.98
2018-02-20T01:22:05.767Z,30.58
2018-02-20T01:24:31.876Z,31.23
2018-02-20T01:26:57.990Z,33.08
2018-02-20T01:29:24.881Z,31.55
2018-02-20T01:31:51.005Z,29.20
2018-02-20T01:34:17.160Z,30.90
2018-02-20T01:36:43.272Z,30.67
2018-02-20T01:39:10.108Z,27.83
2018-02-20T01:41:36.231Z,30.77
2018-02-20T01:44:02.380Z,30.45
2018-02-20T01:46:28.487Z,27.92
2018-02-20T01:48:54.616Z,30.37
2018-02-20T01:51:20.787Z,29.12
2018-02-20T01:53:47.275Z,30.02
2018-02-20T01:56:14.147Z,30.92
2018-02-20T01:58:40.279Z,29.05
2018-02-20T02:01:07.116Z,32.92
2018-02-20T02:03:33.256Z,32.45
2018-02-20T02:05:59.347Z,31.35
2018-02-20T02:08:25.472Z,31.62
2018-02-20T02:10:51.591Z,32.58
2018-02-20T02:13:18.491Z,31.00
2018-02-20T02:15:44.580Z,29.25
2018-02-20T02:18:11.451Z,30.05
2018-02-20T02:20:37.585Z,31.98
2018-02-20T02:23:03.757Z,32.75
2018-02-20T02:25:29.839Z,32.55
2018-02-20T02:27:55.992Z,31.60
2018-02-20T02:30:22.118Z,31.37
2018-02-20T02:32:48.305Z,30.45
2018-02-20T02:35:14.426Z,31.83
2018-02-20T02:37:40.557Z,29.00
2018-02-20T02:40:06.682Z,31.23
2018-02-20T02:42:33.534Z,29.87
2018-02-20T02:44:59.628Z,34.38
2018-02-20T02:47:25.806Z,30.15
2018-02-20T02:49:51.920Z,29.23
2018-02-20T02:52:18.005Z,32.63
2018-02-20T02:54:44.113Z,29.00
2018-02-20T02:57:10.847Z,31.65
2018-02-20T02:59:36.963Z,30.55
2018-02-20T03:02:03.123Z,31.35
2018-02-20T03:04:29.242Z,28.35
2018-02-20T03:06:55.373Z,32.30
2018-02-20T03:09:22.389Z,34.45
2018-02-20T03:11:48.572Z,32.42
2018-02-20T03:14:14.689Z,31.25
2018-02-20T03:16:40.842Z,29.90
2018-02-20T03:19:07.000Z,29.17
2018-02-20T03:21:33.130Z,31.70
2018-02-20T03:23:59.230Z,30.08
2018-02-20T03:26:26.094Z,29.65
2018-02-20T03:28:52.224Z,31.58
2018-02-20T03:31:19.098Z,31.50
2018-02-20T03:33:45.196Z,31.02
2018-02-20T03:36:11.296Z,28.62
2018-02-20T03:38:37.403Z,29.80
2018-02-20T03:41:04.310Z,30.40
2018-02-20T03:43:30.428Z,32.60
2018-02-20T03:45:56.530Z,29.80
2018-02-20T03:48:23.619Z,27.10
2018-02-20T03:50:49.738Z,29.42
2018-02-20T03:53:16.593Z,29.27
2018-02-20T03:55:42.720Z,29.45
2018-02-20T03:58:09.595Z,31.12
2018-02-20T04:00:35.968Z,30.15
2018-02-20T04:03:02.617Z,32.92
2018-02-20T04:05:28.985Z,30.02
2018-02-20T04:07:55.266Z,33.55
2018-02-20T04:10:21.800Z,30.67
2018-02-20T04:12:48.343Z,31.62
2018-02-20T04:15:14.835Z,29.37
2018-02-20T04:17:41.109Z,29.37
2018-02-20T04:20:07.873Z,30.05
2018-02-20T04:22:34.799Z,31.80
2018-02-20T04:25:00.906Z,30.40
2018-02-20T04:27:27.757Z,29.00
2018-02-20T04:29:53.892Z,29.48
2018-02-20T04:32:20.821Z,31.25
2018-02-20T04:34:46.949Z,35.88
2018-02-20T04:37:13.068Z,35.80
2018-02-20T04:39:39.153Z,37.05
2018-02-20T04:42:05.265Z,33.78
2018-02-20T04:44:31.372Z,33.17
2018-02-20T04:46:57.478Z,32.75
2018-02-20T04:49:24.735Z,34.42
2018-02-20T04:51:50.850Z,33.40
2018-02-20T04:54:16.992Z,30.02
2018-02-20T04:56:43.092Z,30.37
2018-02-20T04:59:09.180Z,36.03
2018-02-20T05:01:35.305Z,33.92
2018-02-20T05:04:01.407Z,33.70
2018-02-20T05:06:27.519Z,37.55
2018-02-20T05:08:54.519Z,33.47
2018-02-20T05:11:20.705Z,34.08
2018-02-20T05:13:47.556Z,33.25
2018-02-20T05:16:13.671Z,30.05
2018-02-20T05:18:40.330Z,32.25
2018-02-20T05:21:06.677Z,32.38
2018-02-20T05:23:33.409Z,33.75
2018-02-20T05:25:59.595Z,34.67
2018-02-20T05:28:27.195Z,34.15
2018-02-20T05:30:53.744Z,33.38
2018-02-20T05:33:19.978Z,31.05
2018-02-20T05:35:46.194Z,30.62
2018-02-20T05:41:16.803Z,31.40
2018-02-20T05:43:43.072Z,30.05
2018-02-20T05:46:09.489Z,29.40
2018-02-20T05:48:39.597Z,31.90
2018-02-20T05:51:13.513Z,31.87
2018-02-20T05:53:41.408Z,38.40
2018-02-20T05:56:11.871Z,42.08
2018-02-20T05:58:38.119Z,35.40
2018-02-20T06:01:04.292Z,36.08
2018-02-20T06:03:30.408Z,36.45
2018-02-20T06:11:06.024Z,29.33
2018-02-20T06:13:32.132Z,30.02
2018-02-20T06:15:58.436Z,31.48
2018-02-20T06:18:24.528Z,34.63
2018-02-20T06:20:50.644Z,33.67
2018-02-20T06:23:16.886Z,29.67
2018-02-20T06:25:43.079Z,29.75
2018-02-20T06:31:02.280Z,30.02
2018-02-20T06:33:28.441Z,31.25
2018-02-20T06:35:54.625Z,32.30
2018-02-20T06:38:20.757Z,32.35
2018-02-20T06:40:46.843Z,34.92
2018-02-20T06:43:13.019Z,32.60
2018-02-20T06:45:39.869Z,31.92
2018-02-20T06:48:06.008Z,31.92
2018-02-20T06:50:32.858Z,31.08
2018-02-20T06:52:59.746Z,29.17
2018-02-20T06:55:26.986Z,27.90
2018-02-20T06:57:53.861Z,28.95
2018-02-20T07:00:19.969Z,28.60
2018-02-20T07:02:46.130Z,29.65
2018-02-20T07:05:12.279Z,30.15
2018-02-20T07:07:39.124Z,29.10
2018-02-20T07:10:05.991Z,31.02
2018-02-20T07:12:32.133Z,28.55
2018-02-20T07:14:58.287Z,29.75
2018-02-20T07:17:24.392Z,30.42
2018-02-20T07:19:50.527Z,31.67
2018-02-20T07:22:16.636Z,30.75
2018-02-20T07:24:42.793Z,28.45
2018-02-20T07:27:08.915Z,29.90
2018-02-20T07:29:35.058Z,29.00
2018-02-20T07:32:01.212Z,32.08
2018-02-20T07:34:27.397Z,31.90
2018-02-20T07:36:53.575Z,29.75
2018-02-20T07:39:19.695Z,30.70
2018-02-20T07:41:45.807Z,30.48
2018-02-20T07:44:11.972Z,30.08
2018-02-20T07:46:38.103Z,31.70
2018-02-20T07:49:04.293Z,32.33
2018-02-20T07:51:30.414Z,31.87
2018-02-20T07:53:56.614Z,31.77
2018-02-20T07:56:22.764Z,32.60
2018-02-20T07:58:48.928Z,34.85
2018-02-20T08:01:15.081Z,31.70
2018-02-20T08:03:41.311Z,32.72
2018-02-20T08:06:07.450Z,35.28
2018-02-20T08:08:33.613Z,35.33
2018-02-20T08:10:59.758Z,32.38
2018-02-20T08:13:25.884Z,36.20
2018-02-20T08:15:52.762Z,35.33
2018-02-20T08:18:19.710Z,36.53
2018-02-20T08:20:45.864Z,34.40
2018-02-20T08:23:12.748Z,32.92
2018-02-20T08:25:38.912Z,36.33
2018-02-20T08:28:05.100Z,39.63
2018-02-20T08:30:31.227Z,39.33
2018-02-20T08:32:58.189Z,40.00
2018-02-20T08:35:25.015Z,38.58
2018-02-20T08:37:51.142Z,35.20
2018-02-20T08:40:17.384Z,36.90
2018-02-20T08:42:43.666Z,39.58
2018-02-20T08:45:09.848Z,35.38
2018-02-20T08:47:35.953Z,36.40
2018-02-20T08:50:02.089Z,35.55
2018-02-20T08:52:28.203Z,36.90
2018-02-20T08:54:55.068Z,36.10
2018-02-20T08:57:21.284Z,35.60
2018-02-20T08:59:47.460Z,35.78
2018-02-20T09:02:13.606Z,38.58
2018-02-20T09:04:39.739Z,45.63
2018-02-20T09:07:06.605Z,37.47
2018-02-20T09:09:34.846Z,39.55
2018-02-20T09:12:01.025Z,36.55
2018-02-20T09:14:27.194Z,38.53
2018-02-20T09:16:53.377Z,37.58
2018-02-20T09:19:19.514Z,39.38
2018-02-20T09:21:45.678Z,38.20
2018-02-20T09:24:12.536Z,36.92
2018-02-20T09:26:38.657Z,37.22
2018-02-20T09:29:05.548Z,36.97
2018-02-20T09:31:31.643Z,34.87
2018-02-20T09:33:58.544Z,39.58
2018-02-20T09:36:24.712Z,50.80
2018-02-20T09:38:50.907Z,40.43
2018-02-20T09:41:17.060Z,44.50
2018-02-20T09:43:43.198Z,42.13
2018-02-20T09:46:09.490Z,39.20
2018-02-20T09:48:35.761Z,35.72
2018-02-20T09:51:01.900Z,34.10
2018-02-20T09:53:28.821Z,31.97
2018-02-20T09:55:54.956Z,31.20
2018-02-20T09:58:21.119Z,32.90
2018-02-20T10:00:47.228Z,32.47
2018-02-20T10:03:13.360Z,33.23
2018-02-20T10:05:39.466Z,32.73
2018-02-20T10:08:05.633Z,34.90
2018-02-20T10:10:31.739Z,33.63
2018-02-20T10:12:58.661Z,34.27
2018-02-20T10:15:24.850Z,35.57
2018-02-20T10:17:51.038Z,36.70
2018-02-20T10:20:17.232Z,32.40
2018-02-20T10:22:43.368Z,34.30
2018-02-20T10:25:09.500Z,35.60
2018-02-20T10:27:35.674Z,34.00
2018-02-20T10:30:01.846Z,34.60
2018-02-20T10:32:28.136Z,35.00
2018-02-20T10:34:54.250Z,34.80
2018-02-20T10:37:21.024Z,30.97
2018-02-20T10:39:47.183Z,36.10
2018-02-20T10:42:13.360Z,33.80
2018-02-20T10:44:39.504Z,35.10
2018-02-20T10:47:11.217Z,34.53
2018-02-20T10:49:37.308Z,31.73
2018-02-20T10:52:03.435Z,33.30
2018-02-20T10:54:29.563Z,33.00
2018-02-20T10:56:55.794Z,33.80
2018-02-20T10:59:22.063Z,33.43
2018-02-20T11:01:48.314Z,35.27
2018-02-20T11:04:15.210Z,34.07
2018-02-20T11:06:41.344Z,32.20
2018-02-20T11:09:07.484Z,31.97
2018-02-20T11:11:33.608Z,31.50
2018-02-20T11:13:59.800Z,34.23
2018-02-20T11:16:25.937Z,33.90
2018-02-20T11:18:52.045Z,33.63
2018-02-20T11:21:18.160Z,32.80
2018-02-20T11:23:45.013Z,31.57
2018-02-20T11:26:12.032Z,33.80
2018-02-20T11:28:38.237Z,34.17
2018-02-20T11:31:05.646Z,33.47
2018-02-20T11:33:31.967Z,32.20
2018-02-20T11:35:58.075Z,35.03
2018-02-20T11:38:24.258Z,31.53
2018-02-20T11:40:50.453Z,28.20
2018-02-20T11:43:16.635Z,32.53
2018-02-20T11:45:43.777Z,31.63
2018-02-20T11:48:10.053Z,31.10
2018-02-20T11:50:36.206Z,32.03
2018-02-20T11:53:03.139Z,31.67
2018-02-20T11:55:29.297Z,34.20
2018-02-20T11:57:55.560Z,33.83
2018-02-20T12:00:24.579Z,31.77
2018-02-20T12:02:50.901Z,33.53
2018-02-20T12:05:17.737Z,32.47
2018-02-20T12:07:45.775Z,32.03
2018-02-20T12:10:13.050Z,34.30
2018-02-20T12:12:39.609Z,32.90
2018-02-20T12:15:06.704Z,35.07
2018-02-20T12:17:34.522Z,33.03
2018-02-20T12:22:50.397Z,35.70
2018-02-20T12:25:24.944Z,34.70
2018-02-20T12:27:51.317Z,33.57
2018-02-20T12:30:20.780Z,34.63
2018-02-20T12:32:53.590Z,33.07
2018-02-20T12:35:33.631Z,36.87
2018-02-20T12:38:10.593Z,38.30
2018-02-20T12:40:43.165Z,37.60
2018-02-20T12:43:10.776Z,36.30
2018-02-20T12:45:41.975Z,36.37
2018-02-20T12:48:09.939Z,36.80
2018-02-20T12:50:38.638Z,34.80
2018-02-20T12:53:08.922Z,34.20
2018-02-20T12:55:35.205Z,35.87
2018-02-20T12:58:01.638Z,36.77
2018-02-20T13:00:37.235Z,35.37
2018-02-20T13:03:03.727Z,39.10
2018-02-20T13:05:29.968Z,39.90
2018-02-20T13:07:56.118Z,38.63
2018-02-20T13:10:22.270Z,40.77
2018-02-20T13:12:49.384Z,37.90
2018-02-20T13:15:15.656Z,36.87
2018-02-20T13:17:42.880Z,37.27
2018-02-20T13:20:09.674Z,38.20
2018-02-20T13:22:35.818Z,37.50
2018-02-20T13:25:02.067Z,38.83
2018-02-20T13:27:28.189Z,38.30
2018-02-20T13:33:04.258Z,38.30
2018-02-20T13:35:32.878Z,35.63
2018-02-20T13:38:03.682Z,39.03
2018-02-20T13:40:43.889Z,37.00
2018-02-20T13:43:11.593Z,39.83
2018-02-20T13:45:45.278Z,39.73
2018-02-20T13:48:12.970Z,38.17
2018-02-20T13:53:40.491Z,37.20
2018-02-20T13:56:06.943Z,38.63
2018-02-20T13:58:33.759Z,39.80
2018-02-20T14:01:00.877Z,36.93
2018-02-20T14:03:28.087Z,38.33
2018-02-20T14:06:00.042Z,37.30
2018-02-20T14:08:26.291Z,40.80
2018-02-20T14:11:00.688Z,43.97
2018-02-20T14:13:41.302Z,42.60
2018-02-20T14:16:11.528Z,38.70
2018-02-20T14:21:42.953Z,37.60
2018-02-20T14:24:10.186Z,40.60
2018-02-20T14:26:40.959Z,40.87
2018-02-20T14:29:07.657Z,42.90
2018-02-20T14:31:42.838Z,39.17
2018-02-20T14:34:12.891Z,40.13
2018-02-20T14:36:39.986Z,40.83
2018-02-20T14:39:10.139Z,40.57
2018-02-20T14:41:48.752Z,38.20
2018-02-20T14:47:02.531Z,34.70
2018-02-20T14:52:32.905Z,31.97
2018-02-20T14:55:00.939Z,35.07
2018-02-20T14:57:34.441Z,35.70
2018-02-20T15:00:01.082Z,36.57
2018-02-20T15:02:33.702Z,34.30
2018-02-20T15:05:03.522Z,36.40
2018-02-20T15:07:33.387Z,33.33
2018-02-20T15:10:14.811Z,35.43
2018-02-20T15:12:41.793Z,33.67
2018-02-20T15:18:03.085Z,34.37
2018-02-20T15:20:41.225Z,34.50
2018-02-20T15:23:13.833Z,33.67
2018-02-20T15:25:41.584Z,32.97
2018-02-20T15:28:11.866Z,31.33
2018-02-20T15:30:41.507Z,30.80
2018-02-20T15:33:10.992Z,29.27
2018-02-20T15:35:40.999Z,29.97
2018-02-20T15:38:10.977Z,31.77
2018-02-20T15:40:41.106Z,30.57
2018-02-20T15:43:10.627Z,31.80
2018-02-20T15:45:40.894Z,31.00
2018-02-20T15:48:10.992Z,28.53
2018-02-20T15:50:37.350Z,29.63
2018-02-20T15:53:03.814Z,24.53
2018-02-20T15:55:31.050Z,19.63
2018-02-20T15:58:10.704Z,19.40
2018-02-20T16:00:41.263Z,18.17
2018-02-20T16:03:11.488Z,17.47
2018-02-20T16:05:44.162Z,21.07
2018-02-20T16:17:30.303Z,15.43
2018-02-20T16:20:11.096Z,18.47
2018-02-20T16:22:41.763Z,20.60
2018-02-20T16:25:11.775Z,19.83
2018-02-20T16:27:43.514Z,22.50
2018-02-20T16:30:11.996Z,24.13
2018-02-20T16:32:42.770Z,22.13
2018-02-20T16:35:11.334Z,24.60
2018-02-20T16:37:41.530Z,27.80
2018-02-20T16:40:10.981Z,24.80
2018-02-20T16:42:41.342Z,25.00
2018-02-20T16:45:13.705Z,26.37
2018-02-20T16:47:41.009Z,25.47
2018-02-20T16:50:11.785Z,26.43
2018-02-20T16:52:41.874Z,28.67
2018-02-20T16:55:12.068Z,29.47
2018-02-20T16:57:42.000Z,28.67
2018-02-20T17:00:13.573Z,28.17
2018-02-20T17:02:42.249Z,35.90
2018-02-20T17:05:12.387Z,27.60
2018-02-20T17:07:42.018Z,28.30
2018-02-20T17:16:12.255Z,27.93
2018-02-20T17:18:44.665Z,29.20
2018-02-20T17:21:10.833Z,26.33
2018-02-20T17:23:41.590Z,32.40
2018-02-20T17:26:11.422Z,30.23
2018-02-20T17:28:41.519Z,31.33
2018-02-20T17:31:11.184Z,30.13
2018-02-20T17:33:40.658Z,33.17
2018-02-20T17:36:11.255Z,32.83
2018-02-20T17:38:41.342Z,34.10
2018-02-20T17:41:11.395Z,33.13
2018-02-20T17:43:40.590Z,35.70
2018-02-20T17:46:11.891Z,33.40
2018-02-20T17:48:40.707Z,39.80
2018-02-20T17:51:10.754Z,37.60
2018-02-20T17:53:40.992Z,36.30
2018-02-20T17:56:11.006Z,36.97
2018-02-20T17:58:41.215Z,41.70
2018-02-20T18:01:10.529Z,42.20
2018-02-20T18:03:41.828Z,38.83
2018-02-20T18:06:11.795Z,37.20
2018-02-20T18:08:41.018Z,38.70
2018-02-20T18:11:11.010Z,36.77
2018-02-20T18:13:44.108Z,38.03
2018-02-20T18:16:11.297Z,36.80
2018-02-20T18:18:40.905Z,39.37
2018-02-20T18:21:11.094Z,42.30
2018-02-20T18:23:42.151Z,39.13
2018-02-20T18:26:10.602Z,39.97
2018-02-20T18:28:40.640Z,41.70
2018-02-20T18:31:10.338Z,37.00
2018-02-20T18:33:40.353Z,38.70
2018-02-20T18:36:12.362Z,37.57
2018-02-20T18:38:41.532Z,38.17
2018-02-20T18:41:11.689Z,39.33
2018-02-20T18:43:38.741Z,40.00
2018-02-20T18:46:10.150Z,38.80
2018-02-20T18:48:41.255Z,41.03
2018-02-20T18:51:13.852Z,37.72
2018-02-20T18:53:41.153Z,41.93
2018-02-20T18:56:10.747Z,38.13
2018-02-20T18:58:40.393Z,44.38
2018-02-20T19:01:10.850Z,42.07
2018-02-20T19:03:40.194Z,40.17
2018-02-20T19:06:10.030Z,40.77
2018-02-20T19:08:40.358Z,44.00
2018-02-20T19:11:10.443Z,40.15
2018-02-20T19:13:41.002Z,43.93
2018-02-20T19:16:10.276Z,39.50
2018-02-20T19:18:39.642Z,40.37
2018-02-20T19:21:10.054Z,38.30
2018-02-20T19:23:38.352Z,39.40
2018-02-20T19:26:14.397Z,38.00
2018-02-20T19:28:40.786Z,39.50
2018-02-20T19:31:11.241Z,38.03
2018-02-20T19:33:41.300Z,42.85
2018-02-20T19:36:14.644Z,43.47
2018-02-20T19:38:40.849Z,40.83
2018-02-20T19:41:11.188Z,40.58
2018-02-20T19:43:41.294Z,38.67
2018-02-20T19:46:11.232Z,40.67
2018-02-20T19:48:40.946Z,39.65
2018-02-20T19:51:10.925Z,40.83
2018-02-20T19:53:42.319Z,38.63
2018-02-20T19:56:11.267Z,41.20
2018-02-20T19:58:41.753Z,41.55
2018-02-20T20:01:10.625Z,40.85
2018-02-20T20:03:41.445Z,39.67
2018-02-20T20:06:10.295Z,40.75
2018-02-20T20:08:40.867Z,37.75
2018-02-20T20:11:10.840Z,39.80
2018-02-20T20:13:40.451Z,39.80
2018-02-20T20:16:11.828Z,36.42
2018-02-20T20:18:41.034Z,40.17
2018-02-20T20:21:13.309Z,36.03
2018-02-20T20:23:44.033Z,39.63
2018-02-20T20:26:12.166Z,37.05
2018-02-20T20:28:42.525Z,38.15
2018-02-20T20:31:29.664Z,39.67
2018-02-20T20:34:00.098Z,39.25
2018-02-20T20:42:41.342Z,37.13
2018-02-20T20:45:11.834Z,37.78
2018-02-20T20:47:44.636Z,39.72
2018-02-20T20:50:18.959Z,38.75
2018-02-20T20:52:52.621Z,39.90
2018-02-20T20:55:19.305Z,37.25
2018-02-20T20:57:49.513Z,37.83
2018-02-20T21:03:18.873Z,35.75
2018-02-20T21:05:51.547Z,40.28
2018-02-20T21:11:06.189Z,38.58
2018-02-20T21:16:19.321Z,37.70
2018-02-20T21:21:49.086Z,38.50
2018-02-20T21:24:18.387Z,39.03
2018-02-20T21:26:48.814Z,41.37
2018-02-20T21:29:19.523Z,39.58
2018-02-20T21:31:52.596Z,42.42
2018-02-20T21:34:22.035Z,43.50
2018-02-20T21:36:48.760Z,42.15
2018-02-20T21:39:23.399Z,42.72
2018-02-20T21:51:20.811Z,45.00
2018-02-20T21:53:48.459Z,43.80
2018-02-20T21:56:20.195Z,46.08
2018-02-20T21:59:09.498Z,47.50
2018-02-20T22:01:41.291Z,43.92
2018-02-20T22:04:09.301Z,44.70
2018-02-20T22:06:49.893Z,43.70
2018-02-20T22:09:23.660Z,43.15
2018-02-20T22:11:50.821Z,44.40
2018-02-20T22:14:20.181Z,40.97
2018-02-20T22:26:20.805Z,41.30
2018-02-20T22:28:49.873Z,40.38
2018-02-20T22:31:19.941Z,42.58
2018-02-20T22:33:52.877Z,43.30
2018-02-20T22:42:18.125Z,47.55
2018-02-20T22:44:49.300Z,45.25
2018-02-20T22:47:15.875Z,49.17
2018-02-20T22:52:22.040Z,49.88
2018-02-20T22:54:48.517Z,48.10
2018-02-20T22:57:19.179Z,49.13
2018-02-20T22:59:45.443Z,51.65
2018-02-20T23:02:11.763Z,50.42
2018-02-20T23:04:40.595Z,48.35
2018-02-20T23:07:09.178Z,46.88
2018-02-20T23:09:40.456Z,47.35
2018-02-20T23:14:50.751Z,47.58
2018-02-20T23:17:18.637Z,45.65
2018-02-20T23:19:49.351Z,47.08
2018-02-20T23:22:20.306Z,44.85
2018-02-20T23:24:46.568Z,46.28
2018-02-20T23:27:13.075Z,44.80
2018-02-20T23:29:39.274Z,47.22
2018-02-20T23:32:05.490Z,47.13
2018-02-20T23:34:31.615Z,45.07
2018-02-20T23:36:57.758Z,49.03
2018-02-20T23:45:51.605Z,45.28
2018-02-20T23:48:17.794Z,43.33
2018-02-20T23:50:44.133Z,44.90
2018-02-20T23:53:10.386Z,46.58
2018-02-20T23:55:37.298Z,46.78
2018-02-20T23:58:05.630Z,45.65
